createdAt,value
2022-08-04T00:03:03.689Z,70.60
2022-08-04T00:05:59.375Z,71.00
2022-08-04T00:08:50.086Z,71.20
2022-08-04T00:11:44.902Z,71.40
2022-08-04T00:14:35.881Z,71.80
2022-08-04T00:17:26.265Z,72.20
2022-08-04T00:20:17.047Z,72.20
2022-08-04T00:23:03.830Z,72.40
2022-08-04T00:25:50.061Z,72.60
2022-08-04T00:28:38.416Z,72.80
2022-08-04T00:31:53.733Z,73.00
2022-08-04T00:34:34.621Z,73.50
2022-08-04T00:37:25.451Z,73.50
2022-08-04T00:40:55.761Z,73.90
2022-08-04T00:44:04.713Z,74.10
2022-08-04T00:47:02.470Z,74.10
2022-08-04T00:50:01.878Z,74.20
2022-08-04T00:52:50.809Z,74.10
2022-08-04T00:56:02.625Z,74.10
2022-08-04T00:58:54.803Z,74.40
2022-08-04T01:02:00.516Z,74.60
2022-08-04T01:05:05.932Z,74.90
2022-08-04T01:08:25.550Z,75.20
2022-08-04T01:11:56.858Z,75.50
2022-08-04T01:15:07.665Z,75.80
2022-08-04T01:18:08.019Z,76.10
2022-08-04T01:21:00.128Z,76.40
2022-08-04T01:24:36.761Z,76.80
2022-08-04T01:27:35.683Z,77.00
2022-08-04T01:30:27.381Z,77.00
2022-08-04T01:33:15.037Z,77.40
2022-08-04T01:36:06.911Z,77.50
2022-08-04T01:38:54.430Z,77.80
2022-08-04T01:41:40.767Z,78.00
2022-08-04T01:44:50.029Z,78.10
2022-08-04T01:47:40.360Z,78.20
2022-08-04T01:50:28.314Z,78.50
2022-08-04T01:53:14.442Z,78.40
2022-08-04T01:56:02.761Z,78.60
2022-08-04T01:58:49.044Z,78.60
2022-08-04T02:01:37.583Z,78.80
2022-08-04T02:04:23.990Z,78.90
2022-08-04T02:07:13.770Z,79.30
2022-08-04T02:10:07.048Z,79.30
2022-08-04T02:13:02.487Z,79.10
2022-08-04T02:16:05.162Z,79.60
2022-08-04T02:19:06.718Z,80.20
2022-08-04T02:22:09.553Z,80.70
2022-08-04T02:25:08.893Z,81.30
2022-08-04T02:28:20.755Z,81.70
2022-08-04T02:31:25.509Z,81.80
2022-08-04T02:34:26.786Z,81.60
2022-08-04T02:37:15.346Z,81.60
2022-08-04T02:40:04.388Z,82.10
2022-08-04T02:42:51.058Z,81.80
2022-08-04T02:45:40.998Z,82.60
2022-08-04T02:48:31.310Z,83.10
2022-08-04T02:51:28.050Z,83.10
2022-08-04T02:54:22.318Z,83.10
2022-08-04T02:57:21.902Z,83.10
2022-08-04T03:00:15.499Z,82.80
2022-08-04T03:03:13.674Z,83.00
2022-08-04T03:06:06.383Z,83.20
2022-08-04T03:09:13.169Z,83.30
2022-08-04T03:12:31.736Z,83.40
2022-08-04T03:15:30.661Z,84.30
2022-08-04T03:18:54.575Z,84.50
2022-08-04T03:21:53.070Z,84.70
2022-08-04T03:25:10.874Z,84.80
2022-08-04T03:27:59.812Z,84.40
2022-08-04T03:31:00.800Z,84.70
2022-08-04T03:34:08.964Z,85.60
2022-08-04T03:37:10.330Z,85.50
2022-08-04T03:40:37.962Z,85.70
2022-08-04T03:43:59.212Z,85.50
2022-08-04T03:46:57.814Z,85.20
2022-08-04T03:50:08.636Z,85.40
2022-08-04T03:53:13.027Z,85.60
2022-08-04T03:56:05.322Z,85.90
2022-08-04T03:59:10.260Z,86.20
2022-08-04T04:02:25.225Z,86.80
2022-08-04T04:05:31.258Z,87.20
2022-08-04T04:08:26.478Z,87.20
2022-08-04T04:11:30.498Z,87.00
2022-08-04T04:14:53.853Z,87.20
2022-08-04T04:17:54.228Z,87.50
2022-08-04T04:21:18.846Z,87.50
2022-08-04T04:24:20.940Z,87.80
2022-08-04T04:27:40.580Z,87.80
2022-08-04T04:31:06.047Z,88.30
2022-08-04T04:34:15.798Z,88.50
2022-08-04T04:37:07.764Z,88.60
2022-08-04T04:40:24.401Z,88.80
2022-08-04T04:43:50.994Z,89.00
2022-08-04T04:47:05.438Z,89.10
2022-08-04T04:49:59.506Z,89.20
2022-08-04T04:52:54.946Z,88.90
2022-08-04T04:55:50.165Z,88.90
2022-08-04T04:58:38.485Z,88.90
2022-08-04T05:01:46.162Z,89.10
2022-08-04T05:04:55.662Z,89.40
2022-08-04T05:08:45.491Z,89.00
2022-08-04T05:14:32.673Z,88.60
2022-08-04T05:15:16.590Z,88.70
2022-08-04T05:18:06.036Z,88.80
2022-08-04T05:20:58.399Z,88.80
2022-08-04T05:23:49.536Z,88.90
2022-08-04T05:26:43.954Z,89.30
2022-08-04T05:29:41.178Z,89.20
2022-08-04T05:32:32.749Z,89.50
2022-08-04T05:35:47.767Z,89.10
2022-08-04T05:38:43.817Z,89.10
2022-08-04T05:41:41.986Z,89.00
2022-08-04T05:44:34.023Z,89.00
2022-08-04T05:47:23.726Z,89.00
2022-08-04T05:50:10.426Z,88.70
2022-08-04T05:52:59.953Z,88.80
2022-08-04T05:55:58.563Z,88.40
2022-08-04T05:58:47.083Z,88.20
2022-08-04T06:01:55.326Z,87.60
2022-08-04T06:04:43.572Z,87.50
2022-08-04T06:07:29.727Z,87.30
2022-08-04T06:10:17.003Z,86.90
2022-08-04T06:13:08.693Z,86.80
2022-08-04T06:15:56.391Z,86.50
2022-08-04T06:19:58.983Z,86.10
2022-08-04T06:21:54.702Z,85.60
2022-08-04T06:24:45.142Z,85.30
2022-08-04T06:27:31.791Z,84.90
2022-08-04T06:30:20.147Z,84.60
2022-08-04T06:33:24.100Z,84.50
2022-08-04T06:36:12.238Z,84.40
2022-08-04T06:39:00.316Z,84.20
2022-08-04T06:42:01.887Z,84.00
2022-08-04T06:44:59.103Z,83.80
2022-08-04T06:47:46.116Z,83.60
2022-08-04T06:51:27.839Z,83.60
2022-08-04T06:53:43.688Z,82.50
2022-08-04T06:56:33.860Z,82.10
2022-08-04T06:59:22.299Z,81.90
2022-08-04T07:02:14.312Z,81.90
2022-08-04T07:05:04.508Z,81.60
2022-08-04T07:07:57.440Z,81.20
2022-08-04T07:10:46.341Z,80.90
2022-08-04T07:13:32.827Z,79.80
2022-08-04T07:16:20.661Z,79.30
2022-08-04T07:19:19.099Z,78.70
2022-08-04T07:22:25.021Z,77.80
2022-08-04T07:25:13.211Z,77.50
2022-08-04T07:27:59.701Z,75.80
2022-08-04T07:30:49.020Z,76.20
2022-08-04T07:33:35.169Z,76.00
2022-08-04T07:36:21.315Z,75.60
2022-08-04T07:39:22.007Z,75.40
2022-08-04T07:42:19.053Z,75.00
2022-08-04T07:45:06.323Z,74.40
2022-08-04T07:48:04.666Z,73.70
2022-08-04T07:50:52.442Z,73.70
2022-08-04T07:53:52.889Z,73.70
2022-08-04T07:56:43.420Z,73.30
2022-08-04T07:59:29.398Z,72.90
2022-08-04T08:02:16.792Z,72.50
2022-08-04T08:05:04.121Z,72.30
2022-08-04T08:07:54.338Z,71.50
2022-08-04T08:10:46.895Z,71.70
2022-08-04T08:13:34.533Z,70.90
2022-08-04T08:16:21.203Z,70.30
2022-08-04T08:19:12.418Z,69.10
2022-08-04T08:22:00.879Z,69.60
2022-08-04T08:24:47.854Z,68.90
2022-08-04T08:27:35.026Z,68.30
2022-08-04T08:30:22.351Z,68.30
2022-08-04T08:33:13.798Z,67.40
2022-08-04T08:36:33.816Z,67.80
2022-08-04T08:39:34.941Z,67.00
2022-08-04T08:42:33.808Z,66.20
2022-08-04T08:45:57.473Z,65.90
2022-08-04T08:50:00.361Z,65.50
2022-08-04T08:53:01.137Z,64.70
2022-08-04T08:56:43.370Z,63.30
2022-08-04T08:59:47.456Z,63.10
2022-08-04T09:03:03.915Z,62.50
2022-08-04T09:05:56.863Z,63.30
2022-08-04T09:09:06.542Z,62.00
2022-08-04T09:11:55.614Z,61.00
2022-08-04T09:15:12.834Z,60.60
2022-08-04T09:18:14.943Z,60.90
2022-08-04T09:21:06.841Z,60.60
2022-08-04T09:24:35.655Z,59.90
2022-08-04T09:27:40.799Z,59.70
2022-08-04T09:30:45.296Z,58.50
2022-08-04T09:33:54.831Z,59.60
2022-08-04T09:36:51.492Z,58.00
2022-08-04T09:39:52.056Z,57.10
2022-08-04T09:43:06.654Z,57.00
2022-08-04T09:46:34.407Z,56.10
2022-08-04T09:49:29.751Z,55.50
2022-08-04T09:52:34.740Z,54.90
2022-08-04T09:55:33.079Z,55.70
2022-08-04T09:58:47.606Z,53.70
2022-08-04T10:01:36.559Z,53.80
2022-08-04T10:04:25.902Z,52.30
2022-08-04T10:07:40.118Z,53.00
2022-08-04T10:10:37.201Z,52.00
2022-08-04T10:13:29.425Z,51.60
2022-08-04T10:16:27.397Z,51.20
2022-08-04T10:19:32.515Z,51.10
2022-08-04T10:23:09.343Z,51.80
2022-08-04T10:26:06.195Z,50.50
2022-08-04T10:29:00.682Z,50.00
2022-08-04T10:32:04.600Z,50.60
2022-08-04T10:34:56.539Z,50.10
2022-08-04T10:38:01.228Z,49.70
2022-08-04T10:40:56.811Z,49.90
2022-08-04T10:44:24.661Z,49.90
2022-08-04T10:47:17.884Z,48.70
2022-08-04T10:50:05.807Z,47.90
2022-08-04T10:53:00.241Z,48.50
2022-08-04T10:56:06.608Z,48.50
2022-08-04T10:58:59.931Z,49.20
2022-08-04T11:02:00.794Z,50.00
2022-08-04T11:05:01.667Z,49.40
2022-08-04T11:07:52.447Z,48.70
2022-08-04T11:10:58.428Z,47.40
2022-08-04T11:13:48.362Z,47.70
2022-08-04T11:16:53.300Z,48.40
2022-08-04T11:19:51.485Z,46.20
2022-08-04T11:22:48.111Z,46.70
2022-08-04T11:25:42.374Z,47.40
2022-08-04T11:29:04.087Z,46.40
2022-08-04T11:31:52.160Z,47.10
2022-08-04T11:34:43.949Z,46.30
2022-08-04T11:37:50.148Z,46.50
2022-08-04T11:40:55.806Z,47.80
2022-08-04T11:44:01.677Z,48.50
2022-08-04T11:46:53.289Z,48.20
2022-08-04T11:49:56.585Z,48.30
2022-08-04T11:52:46.033Z,48.40
2022-08-04T11:56:06.874Z,48.60
2022-08-04T11:58:39.858Z,48.10
2022-08-04T12:01:33.350Z,47.70
2022-08-04T12:04:43.287Z,47.50
2022-08-04T12:07:41.758Z,47.50
2022-08-04T12:10:56.183Z,46.80
2022-08-04T12:14:06.879Z,46.90
2022-08-04T12:17:03.949Z,46.90
2022-08-04T12:20:04.604Z,47.50
2022-08-04T12:23:08.041Z,46.60
2022-08-04T12:26:00.324Z,46.50
2022-08-04T12:29:09.676Z,46.60
2022-08-04T12:32:11.703Z,46.40
2022-08-04T12:35:18.822Z,46.40
2022-08-04T12:38:11.902Z,46.20
2022-08-04T12:41:03.730Z,46.40
2022-08-04T12:43:50.645Z,46.60
2022-08-04T12:46:37.984Z,46.90
2022-08-04T12:49:25.412Z,45.90
2022-08-04T12:52:14.929Z,46.20
2022-08-04T12:55:02.687Z,46.30
2022-08-04T12:57:50.824Z,46.00
2022-08-04T13:00:41.671Z,46.20
2022-08-04T13:03:37.556Z,46.80
2022-08-04T13:06:35.425Z,46.40
2022-08-04T13:09:26.373Z,46.20
2022-08-04T13:12:32.560Z,46.50
2022-08-04T13:15:23.058Z,46.20
2022-08-04T13:18:14.715Z,45.60
2022-08-04T13:21:21.227Z,45.30
2022-08-04T13:24:22.839Z,44.80
2022-08-04T13:27:19.412Z,45.10
2022-08-04T13:30:06.879Z,44.80
2022-08-04T13:33:01.456Z,45.20
2022-08-04T13:35:55.806Z,44.60
2022-08-04T13:39:09.089Z,45.80
2022-08-04T13:41:59.174Z,44.70
2022-08-04T13:44:52.961Z,44.80
2022-08-04T13:47:40.975Z,44.70
2022-08-04T13:50:30.317Z,45.50
2022-08-04T13:53:18.902Z,44.80
2022-08-04T13:56:12.623Z,45.20
2022-08-04T13:59:02.929Z,45.00
2022-08-04T14:02:02.928Z,45.10
2022-08-04T14:04:57.170Z,45.40
2022-08-04T14:07:49.152Z,45.60
2022-08-04T14:10:36.941Z,46.00
2022-08-04T14:13:41.865Z,46.60
2022-08-04T14:16:28.454Z,45.80
2022-08-04T14:19:14.435Z,46.00
2022-08-04T14:22:00.474Z,46.40
2022-08-04T14:25:15.876Z,46.50
2022-08-04T14:28:02.882Z,46.50
2022-08-04T14:30:48.875Z,46.30
2022-08-04T14:34:01.281Z,46.20
2022-08-04T14:37:13.266Z,46.10
2022-08-04T14:40:17.255Z,46.80
2022-08-04T14:43:08.915Z,46.60
2022-08-04T14:46:05.263Z,46.30
2022-08-04T14:49:12.170Z,46.30
2022-08-04T14:52:01.702Z,45.90
2022-08-04T14:54:48.139Z,46.10
2022-08-04T14:58:34.354Z,46.30
2022-08-04T15:00:43.680Z,46.80
2022-08-04T15:03:30.439Z,47.00
2022-08-04T15:06:21.580Z,46.60
2022-08-04T15:09:10.122Z,46.10
2022-08-04T15:11:56.379Z,46.30
2022-08-04T15:14:44.664Z,46.30
2022-08-04T15:17:31.783Z,46.20
2022-08-04T15:20:18.215Z,46.00
2022-08-04T15:23:10.442Z,46.10
2022-08-04T15:26:00.283Z,46.40
2022-08-04T15:28:54.621Z,46.10
2022-08-04T15:32:05.632Z,46.10
2022-08-04T15:34:51.822Z,45.50
2022-08-04T15:38:02.263Z,45.60
2022-08-04T15:41:08.065Z,44.90
2022-08-04T15:44:00.473Z,44.50
2022-08-04T15:46:46.365Z,45.00
2022-08-04T15:49:33.717Z,44.90
2022-08-04T15:52:19.991Z,44.90
2022-08-04T15:55:45.137Z,45.10
2022-08-04T15:58:48.634Z,45.10
2022-08-04T16:01:34.898Z,45.00
2022-08-04T16:04:22.222Z,45.10
2022-08-04T16:07:08.164Z,45.10
2022-08-04T16:09:54.258Z,44.80
2022-08-04T16:13:06.494Z,44.80
2022-08-04T16:15:53.815Z,45.10
2022-08-04T16:18:43.572Z,45.00
2022-08-04T16:21:32.920Z,45.40
2022-08-04T16:24:36.110Z,45.50
2022-08-04T16:27:39.375Z,45.20
2022-08-04T16:30:27.267Z,45.60
2022-08-04T16:33:13.546Z,45.50
2022-08-04T16:36:08.087Z,45.90
2022-08-04T16:39:04.725Z,45.70
2022-08-04T16:41:50.913Z,45.50
2022-08-04T16:44:52.823Z,45.40
2022-08-04T16:47:48.561Z,45.60
2022-08-04T16:50:47.532Z,45.80
2022-08-04T16:53:53.205Z,45.50
2022-08-04T16:56:46.896Z,46.10
2022-08-04T16:59:33.378Z,46.00
2022-08-04T17:02:25.321Z,45.90
2022-08-04T17:05:38.009Z,45.50
2022-08-04T17:08:30.121Z,45.60
2022-08-04T17:11:17.006Z,45.40
2022-08-04T17:14:05.863Z,45.70
2022-08-04T17:16:53.803Z,46.00
2022-08-04T17:19:41.672Z,46.20
2022-08-04T17:22:27.763Z,46.20
2022-08-04T17:25:13.913Z,46.20
2022-08-04T17:28:08.682Z,46.30
2022-08-04T17:31:10.140Z,46.40
2022-08-04T17:33:58.808Z,46.60
2022-08-04T17:36:45.111Z,46.30
2022-08-04T17:42:41.634Z,46.70
2022-08-04T17:48:41.403Z,46.90
2022-08-04T17:52:05.579Z,47.20
2022-08-04T17:55:02.879Z,47.10
2022-08-04T17:57:52.251Z,47.30
2022-08-04T18:00:38.929Z,47.10
2022-08-04T18:03:30.045Z,47.30
2022-08-04T18:06:16.747Z,47.50
2022-08-04T18:12:14.804Z,47.80
2022-08-04T18:15:02.345Z,48.10
2022-08-04T18:21:02.928Z,48.50
2022-08-04T18:23:51.309Z,48.80
2022-08-04T18:26:38.426Z,49.20
2022-08-04T18:29:31.646Z,49.20
2022-08-04T18:32:18.487Z,50.00
2022-08-04T18:35:07.570Z,50.10
2022-08-04T18:38:06.034Z,50.60
2022-08-04T18:40:57.990Z,50.90
2022-08-04T18:43:44.914Z,51.20
2022-08-04T18:46:52.661Z,51.50
2022-08-04T18:51:00.633Z,51.80
2022-08-04T18:52:48.474Z,52.20
2022-08-04T18:55:56.489Z,52.40
2022-08-04T18:58:45.319Z,52.60
2022-08-04T19:02:13.303Z,52.80
2022-08-04T19:04:39.114Z,53.20
2022-08-04T19:07:29.972Z,53.50
2022-08-04T19:10:33.590Z,53.30
2022-08-04T19:13:25.389Z,53.50
2022-08-04T19:16:22.093Z,53.60
2022-08-04T19:19:08.261Z,53.90
2022-08-04T19:21:59.801Z,54.10
2022-08-04T19:24:48.971Z,54.10
2022-08-04T19:27:38.822Z,54.20
2022-08-04T19:30:25.990Z,54.20
2022-08-04T19:33:12.386Z,54.30
2022-08-04T19:35:58.323Z,54.40
2022-08-04T19:38:45.083Z,54.50
2022-08-04T19:41:33.838Z,54.70
2022-08-04T19:44:44.517Z,54.90
2022-08-04T19:48:17.554Z,55.30
2022-08-04T19:50:37.557Z,55.30
2022-08-04T19:53:37.064Z,55.30
2022-08-04T19:56:25.675Z,55.40
2022-08-04T19:59:12.279Z,55.70
2022-08-04T20:01:58.915Z,55.70
2022-08-04T20:04:46.863Z,55.70
2022-08-04T20:07:33.988Z,55.80
2022-08-04T20:10:23.868Z,56.20
2022-08-04T20:13:10.520Z,56.40
2022-08-04T20:15:58.241Z,57.10
2022-08-04T20:18:55.663Z,56.80
2022-08-04T20:21:55.176Z,57.40
2022-08-04T20:24:50.375Z,57.60
2022-08-04T20:28:00.125Z,57.60
2022-08-04T20:30:47.614Z,57.90
2022-08-04T20:33:35.086Z,58.00
2022-08-04T20:36:23.281Z,58.00
2022-08-04T20:39:09.623Z,58.00
2022-08-04T20:41:55.908Z,58.00
2022-08-04T20:44:46.422Z,58.20
2022-08-04T20:47:35.693Z,58.40
2022-08-04T20:50:30.288Z,58.90
2022-08-04T20:53:17.356Z,59.00
2022-08-04T20:56:04.086Z,59.20
2022-08-04T20:58:52.598Z,59.30
2022-08-04T21:01:38.722Z,59.40
2022-08-04T21:04:45.275Z,59.40
2022-08-04T21:07:36.372Z,59.70
2022-08-04T21:10:28.083Z,59.60
2022-08-04T21:13:14.231Z,59.80
2022-08-04T21:16:00.440Z,60.10
2022-08-04T21:18:50.555Z,60.00
2022-08-04T21:21:38.069Z,60.20
2022-08-04T21:24:26.032Z,60.40
2022-08-04T21:27:12.630Z,60.50
2022-08-04T21:30:00.251Z,60.70
2022-08-04T21:32:46.334Z,60.80
2022-08-04T21:35:37.701Z,61.00
2022-08-04T21:38:28.174Z,61.00
2022-08-04T21:41:22.020Z,61.20
2022-08-04T21:44:12.979Z,61.50
2022-08-04T21:46:59.087Z,61.70
2022-08-04T21:49:56.363Z,62.10
2022-08-04T21:52:43.615Z,62.30
2022-08-04T21:56:04.976Z,62.40
2022-08-04T21:58:38.593Z,62.50
2022-08-04T22:01:50.287Z,62.70
2022-08-04T22:04:37.682Z,62.80
2022-08-04T22:07:23.966Z,63.10
2022-08-04T22:10:32.622Z,63.30
2022-08-04T22:13:22.396Z,63.20
2022-08-04T22:16:09.413Z,63.90
2022-08-04T22:18:57.710Z,63.60
2022-08-04T22:21:46.612Z,64.10
2022-08-04T22:24:33.019Z,64.50
2022-08-04T22:27:39.098Z,64.60
2022-08-04T22:30:33.319Z,64.60
2022-08-04T22:33:23.200Z,64.80
2022-08-04T22:36:10.114Z,64.80
2022-08-04T22:39:04.277Z,65.00
2022-08-04T22:42:03.622Z,65.10
2022-08-04T22:44:50.818Z,65.20
2022-08-04T22:47:38.653Z,65.40
2022-08-04T22:50:27.726Z,65.60
2022-08-04T22:53:17.758Z,66.20
2022-08-04T22:56:10.818Z,66.20
2022-08-04T22:58:57.416Z,65.90
2022-08-04T23:02:00.031Z,66.60
2022-08-04T23:04:52.395Z,66.70
2022-08-04T23:07:49.075Z,67.10
2022-08-04T23:10:36.178Z,67.70
2022-08-04T23:13:22.459Z,68.10
2022-08-04T23:16:09.968Z,68.20
2022-08-04T23:18:56.943Z,68.20
2022-08-04T23:21:47.674Z,68.10
2022-08-04T23:24:47.825Z,68.30
2022-08-04T23:27:40.426Z,68.60
2022-08-04T23:30:30.563Z,68.80
2022-08-04T23:33:16.680Z,69.10
2022-08-04T23:36:02.845Z,69.40
2022-08-04T23:38:48.990Z,69.80
2022-08-04T23:41:53.659Z,69.90
2022-08-04T23:44:41.665Z,70.20
2022-08-04T23:48:15.468Z,70.40
2022-08-04T23:50:33.633Z,70.40
2022-08-04T23:53:22.509Z,70.60
2022-08-04T23:56:11.128Z,70.70
2022-08-04T23:59:06.129Z,70.80
